createdAt,value
2022-11-21T00:02:41.932Z,98185.34
2022-11-21T00:05:55.576Z,98180.88
2022-11-21T00:09:07.271Z,98181.48
2022-11-21T00:12:18.967Z,98176.78
2022-11-21T00:15:32.222Z,98188.72
2022-11-21T00:18:44.630Z,98186.77
2022-11-21T00:21:56.509Z,98172.99
2022-11-21T00:25:08.667Z,98166.77
2022-11-21T00:28:20.269Z,98167.05
2022-11-21T00:31:32.306Z,98171.22
2022-11-21T00:34:44.018Z,98170.74
2022-11-21T00:37:55.640Z,98161.90
2022-11-21T00:41:07.351Z,98158.56
2022-11-21T00:44:18.943Z,98152.42
2022-11-21T00:47:30.750Z,98163.84
2022-11-21T00:50:42.604Z,98161.33
2022-11-21T00:53:54.328Z,98154.17
2022-11-21T00:57:06.123Z,98159.14
2022-11-21T01:00:21.625Z,98150.75
2022-11-21T01:03:33.260Z,98155.97
2022-11-21T01:06:46.505Z,98160.33
2022-11-21T01:09:58.159Z,98158.63
2022-11-21T01:13:09.893Z,98159.57
2022-11-21T01:16:25.973Z,98155.36
2022-11-21T01:19:37.954Z,98148.64
2022-11-21T01:22:49.544Z,98140.32
2022-11-21T01:26:03.186Z,98132.51
2022-11-21T01:29:15.002Z,98131.51
2022-11-21T01:32:26.663Z,98132.36
2022-11-21T01:35:38.355Z,98132.45
2022-11-21T01:38:52.453Z,98130.84
2022-11-21T01:42:03.989Z,98116.47
2022-11-21T01:45:56.147Z,98134.13
2022-11-21T01:49:12.404Z,98144.02
2022-11-21T01:52:27.952Z,98149.98
2022-11-21T01:55:41.097Z,98148.23
2022-11-21T01:58:55.955Z,98151.02
2022-11-21T02:02:11.752Z,98150.41
2022-11-21T02:05:27.840Z,98154.76
2022-11-21T02:08:39.837Z,98151.58
2022-11-21T02:11:56.801Z,98143.34
2022-11-21T02:15:07.605Z,98145.19
2022-11-21T02:18:19.139Z,98153.08
2022-11-21T02:21:40.780Z,98150.80
2022-11-21T02:25:01.153Z,98157.17
2022-11-21T02:28:16.012Z,98153.38
2022-11-21T02:31:27.916Z,98146.39
2022-11-21T02:34:39.703Z,98143.88
2022-11-21T02:37:55.519Z,98138.09
2022-11-21T02:41:16.443Z,98138.41
2022-11-21T02:44:33.843Z,98142.41
2022-11-21T02:47:47.582Z,98141.73
2022-11-21T02:50:59.386Z,98131.65
2022-11-21T02:54:11.487Z,98138.28
2022-11-21T02:57:23.276Z,98127.80
2022-11-21T03:00:35.087Z,98140.89
2022-11-21T03:03:47.180Z,98128.78
2022-11-21T03:06:58.980Z,98122.06
2022-11-21T03:10:12.745Z,98118.88
2022-11-21T03:13:24.630Z,98121.93
2022-11-21T03:16:36.338Z,98122.33
2022-11-21T03:19:48.035Z,98117.98
2022-11-21T03:22:59.931Z,98118.16
2022-11-21T03:26:11.596Z,98095.08
2022-11-21T03:29:23.232Z,98109.73
2022-11-21T03:32:34.836Z,98100.86
2022-11-21T03:35:46.514Z,98090.64
2022-11-21T03:38:58.145Z,98097.27
2022-11-21T03:42:10.102Z,98095.61
2022-11-21T03:45:22.285Z,98109.59
2022-11-21T03:48:33.907Z,98114.48
2022-11-21T03:51:46.897Z,98104.78
2022-11-21T03:54:58.604Z,98106.53
2022-11-21T03:58:10.494Z,98117.05
2022-11-21T04:01:22.884Z,98111.73
2022-11-21T04:04:36.157Z,98079.64
2022-11-21T04:07:47.970Z,98114.55
2022-11-21T04:11:00.770Z,98106.53
2022-11-21T04:14:12.558Z,98115.17
2022-11-21T04:17:24.250Z,98105.55
2022-11-21T04:20:35.944Z,98107.13
2022-11-21T04:23:47.505Z,98101.89
2022-11-21T04:26:59.610Z,98109.73
2022-11-21T04:30:13.699Z,98106.32
2022-11-21T04:33:25.787Z,98103.77
2022-11-21T04:36:37.788Z,98107.69
2022-11-21T04:39:49.657Z,98106.07
2022-11-21T04:43:01.595Z,98100.80
2022-11-21T04:46:13.336Z,98106.97
2022-11-21T04:49:25.120Z,98097.65
2022-11-21T04:52:36.908Z,98100.41
2022-11-21T04:55:48.687Z,98091.73
2022-11-21T04:59:00.676Z,98092.16
2022-11-21T05:02:12.266Z,98098.58
2022-11-21T05:05:24.077Z,98088.03
2022-11-21T05:08:37.024Z,98077.81
2022-11-21T05:12:03.669Z,98065.77
2022-11-21T05:15:19.259Z,98066.83
2022-11-21T05:18:30.306Z,98059.17
2022-11-21T05:21:41.895Z,98070.88
2022-11-21T05:24:53.605Z,98061.55
2022-11-21T05:28:05.287Z,98048.49
2022-11-21T05:31:17.112Z,98044.14
2022-11-21T05:34:29.150Z,98055.89
2022-11-21T05:37:41.168Z,98050.70
2022-11-21T05:40:53.044Z,98039.72
2022-11-21T05:44:05.014Z,98037.94
2022-11-21T05:47:17.208Z,98032.91
2022-11-21T05:50:29.111Z,98032.76
2022-11-21T05:53:41.522Z,98035.52
2022-11-21T05:56:53.566Z,98034.75
2022-11-21T06:00:05.524Z,98020.92
2022-11-21T06:03:34.515Z,98021.27
2022-11-21T06:06:46.167Z,98024.63
2022-11-21T06:09:57.917Z,98018.84
2022-11-21T06:13:14.372Z,98026.33
2022-11-21T06:16:27.045Z,98016.80
2022-11-21T06:19:38.942Z,98018.47
2022-11-21T06:22:50.534Z,98018.41
2022-11-21T06:26:06.423Z,98022.76
2022-11-21T06:29:22.283Z,98022.08
2022-11-21T06:32:34.068Z,98018.55
2022-11-21T06:35:46.243Z,98028.33
2022-11-21T06:38:59.538Z,98020.16
2022-11-21T06:42:12.008Z,98026.80
2022-11-21T06:45:23.839Z,98028.33
2022-11-21T06:48:36.063Z,98024.84
2022-11-21T06:51:47.753Z,98016.48
2022-11-21T06:54:59.479Z,98011.25
2022-11-21T06:58:11.291Z,98019.23
2022-11-21T07:01:23.466Z,98012.30
2022-11-21T07:04:35.648Z,98013.82
2022-11-21T07:07:47.552Z,98000.84
2022-11-21T07:11:23.544Z,97997.70
2022-11-21T07:14:13.702Z,98000.97
2022-11-21T07:17:25.466Z,97999.27
2022-11-21T07:20:38.368Z,97996.00
2022-11-21T07:23:50.213Z,97994.52
2022-11-21T07:27:03.365Z,97993.36
2022-11-21T07:30:18.847Z,97988.86
2022-11-21T07:33:30.779Z,97999.41
2022-11-21T07:36:42.731Z,97988.02
2022-11-21T07:39:54.504Z,97992.58
2022-11-21T07:43:11.205Z,97996.42
2022-11-21T07:46:21.321Z,97989.33
2022-11-21T07:49:33.549Z,97993.50
2022-11-21T07:52:47.010Z,97982.02
2022-11-21T07:55:58.695Z,97979.61
2022-11-21T07:59:10.660Z,97972.14
2022-11-21T08:02:27.175Z,97969.80
2022-11-21T08:05:41.794Z,97958.53
2022-11-21T08:08:55.682Z,97948.20
2022-11-21T08:12:07.569Z,97945.45
2022-11-21T08:15:20.294Z,97947.70
2022-11-21T08:18:32.023Z,97944.30
2022-11-21T08:21:43.779Z,97944.23
2022-11-21T08:24:55.590Z,97947.23
2022-11-21T08:28:07.325Z,97942.60
2022-11-21T08:31:20.202Z,97942.42
2022-11-21T08:34:32.023Z,97943.55
2022-11-21T08:37:43.683Z,97945.55
2022-11-21T08:40:59.594Z,97940.88
2022-11-21T08:44:14.368Z,97943.55
2022-11-21T08:47:26.510Z,97927.31
2022-11-21T08:50:46.871Z,97927.17
2022-11-21T08:53:58.558Z,97927.99
2022-11-21T08:57:10.408Z,97927.14
2022-11-21T09:00:34.012Z,97911.08
2022-11-21T09:03:45.848Z,97916.13
2022-11-21T09:06:57.772Z,97918.69
2022-11-21T09:10:13.254Z,97921.91
2022-11-21T09:13:25.204Z,97926.70
2022-11-21T09:16:52.061Z,97920.46
2022-11-21T09:20:04.000Z,97914.98
2022-11-21T09:23:18.101Z,97919.83
2022-11-21T09:26:29.902Z,97917.04
2022-11-21T09:29:42.495Z,97914.98
2022-11-21T09:32:54.203Z,97923.68
2022-11-21T09:36:07.502Z,97921.80
2022-11-21T09:39:21.143Z,97919.00
2022-11-21T09:43:07.029Z,97918.16
2022-11-21T09:46:23.652Z,97916.80
2022-11-21T09:49:38.038Z,97917.34
2022-11-21T09:52:54.352Z,97901.42
2022-11-21T09:56:10.665Z,97914.92
2022-11-21T09:59:37.261Z,97908.23
2022-11-21T10:02:49.128Z,97904.69
2022-11-21T10:06:05.855Z,97905.42
2022-11-21T10:09:23.724Z,97899.96
2022-11-21T10:12:41.576Z,97896.00
2022-11-21T10:16:03.235Z,97887.98
2022-11-21T10:19:44.545Z,97882.84
2022-11-21T10:23:22.161Z,97879.80
2022-11-21T10:26:40.744Z,97883.14
2022-11-21T10:29:59.117Z,97888.14
2022-11-21T10:33:15.950Z,97880.81
2022-11-21T10:36:33.264Z,97895.64
2022-11-21T10:39:49.328Z,97890.28
2022-11-21T10:43:08.445Z,97888.52
2022-11-21T10:46:20.211Z,97881.75
2022-11-21T10:49:36.871Z,97883.60
2022-11-21T10:52:53.968Z,97875.42
2022-11-21T10:56:13.678Z,97863.92
2022-11-21T10:59:32.017Z,97863.73
2022-11-21T11:02:44.309Z,97859.11
2022-11-21T11:06:03.448Z,97857.59
2022-11-21T11:09:30.869Z,97854.72
2022-11-21T11:13:01.589Z,97862.36
2022-11-21T11:16:24.161Z,97852.81
2022-11-21T11:19:40.345Z,97844.96
2022-11-21T11:22:50.359Z,97845.47
2022-11-21T11:26:05.300Z,97843.31
2022-11-21T11:29:22.496Z,97840.91
2022-11-21T11:32:32.628Z,97843.64
2022-11-21T11:35:45.002Z,97833.30
2022-11-21T11:39:02.101Z,97834.98
2022-11-21T11:43:03.663Z,97831.39
2022-11-21T11:46:52.444Z,97832.11
2022-11-21T11:50:18.068Z,97819.63
2022-11-21T11:53:35.827Z,97816.75
2022-11-21T11:56:51.386Z,97809.95
2022-11-21T12:00:11.557Z,97801.84
2022-11-21T12:03:29.237Z,97805.65
2022-11-21T12:10:08.326Z,97807.33
2022-11-21T12:13:25.104Z,97804.23
2022-11-21T12:16:37.941Z,97804.23
2022-11-21T12:19:50.038Z,97810.92
2022-11-21T12:23:03.242Z,97811.98
2022-11-21T12:26:38.303Z,97810.80
2022-11-21T12:30:05.535Z,97803.52
2022-11-21T12:33:24.511Z,97803.77
2022-11-21T12:36:44.640Z,97804.48
2022-11-21T12:40:23.639Z,97808.30
2022-11-21T12:43:43.807Z,97805.55
2022-11-21T12:47:20.589Z,97800.90
2022-11-21T12:50:56.554Z,97798.99
2022-11-21T12:54:44.624Z,97798.52
2022-11-21T12:58:33.772Z,97797.80
2022-11-21T13:01:55.833Z,97795.19
2022-11-21T13:05:25.432Z,97800.42
2022-11-21T13:08:42.498Z,97805.78
2022-11-21T13:12:19.712Z,97798.88
2022-11-21T13:15:38.496Z,97795.91
2022-11-21T13:18:55.635Z,97794.23
2022-11-21T13:22:07.314Z,97796.50
2022-11-21T13:25:52.804Z,97794.59
2022-11-21T13:29:18.688Z,97794.59
2022-11-21T13:32:50.646Z,97799.84
2022-11-21T13:36:05.620Z,97799.00
2022-11-21T13:39:37.157Z,97801.48
2022-11-21T13:43:38.030Z,97793.63
2022-11-21T13:47:13.898Z,97790.06
2022-11-21T13:50:52.162Z,97784.47
2022-11-21T13:54:50.135Z,97778.12
2022-11-21T13:58:27.238Z,97772.16
2022-11-21T14:02:35.672Z,97778.83
2022-11-21T14:06:44.823Z,97770.38
2022-11-21T14:14:37.639Z,97768.27
2022-11-21T14:18:24.572Z,97768.87
2022-11-21T14:21:52.268Z,97765.04
2022-11-21T14:25:30.861Z,97767.30
2022-11-21T14:32:12.822Z,97776.10
2022-11-21T14:35:34.883Z,97768.03
2022-11-21T14:39:14.001Z,97777.16
2022-11-21T14:42:09.945Z,97779.45
2022-11-21T14:45:29.038Z,97779.91
2022-11-21T14:48:42.483Z,97782.99
2022-11-21T14:51:58.167Z,97765.58
2022-11-21T14:55:30.734Z,97785.35
2022-11-21T14:58:52.392Z,97789.88
2022-11-21T15:02:08.099Z,97783.79
2022-11-21T15:06:01.457Z,97791.77
2022-11-21T15:12:12.443Z,97786.53
2022-11-21T15:15:34.908Z,97786.53
2022-11-21T15:18:48.608Z,97784.63
2022-11-21T15:22:04.691Z,97788.81
2022-11-21T15:25:24.368Z,97789.41
2022-11-21T15:28:38.660Z,97799.77
2022-11-21T15:31:51.179Z,97796.30
2022-11-21T15:35:03.390Z,97799.64
2022-11-21T15:38:28.652Z,97795.13
2022-11-21T15:41:42.132Z,97787.77
2022-11-21T15:45:08.152Z,97790.14
2022-11-21T15:48:20.463Z,97782.53
2022-11-21T15:51:59.993Z,97775.17
2022-11-21T15:54:51.683Z,97773.48
2022-11-21T15:58:04.149Z,97777.88
2022-11-21T16:01:22.989Z,97774.45
2022-11-21T16:04:36.039Z,97773.48
2022-11-21T16:07:48.543Z,97773.73
2022-11-21T16:11:01.010Z,97773.11
2022-11-21T16:14:17.169Z,97777.54
2022-11-21T16:17:29.349Z,97773.95
2022-11-21T16:20:41.602Z,97777.29
2022-11-21T16:23:53.786Z,97775.39
2022-11-21T16:27:05.654Z,97783.59
2022-11-21T16:30:19.837Z,97777.29
2022-11-21T16:33:32.508Z,97776.45
2022-11-21T16:36:44.380Z,97793.48
2022-11-21T16:39:56.167Z,97790.02
2022-11-21T16:43:15.483Z,97794.20
2022-11-21T16:46:29.129Z,97799.44
2022-11-21T16:49:43.532Z,97797.78
2022-11-21T16:52:55.316Z,97795.88
2022-11-21T16:59:50.099Z,97802.77
2022-11-21T17:03:01.931Z,97799.94
2022-11-21T17:06:14.757Z,97801.47
2022-11-21T17:09:26.677Z,97805.77
2022-11-21T17:12:42.707Z,97809.45
2022-11-21T17:15:54.513Z,97808.52
2022-11-21T17:19:08.511Z,97811.02
2022-11-21T17:22:24.584Z,97810.89
2022-11-21T17:25:34.743Z,97803.75
2022-11-21T17:28:47.816Z,97806.37
2022-11-21T17:31:59.784Z,97814.95
2022-11-21T17:35:13.468Z,97818.28
2022-11-21T17:38:25.543Z,97818.28
2022-11-21T17:41:38.259Z,97821.63
2022-11-21T17:44:50.090Z,97815.41
2022-11-21T17:48:01.944Z,97811.61
2022-11-21T17:51:16.928Z,97816.84
2022-11-21T17:54:29.053Z,97826.27
2022-11-21T17:57:41.267Z,97820.91
2022-11-21T18:00:53.137Z,97821.88
2022-11-21T18:04:14.692Z,97819.25
2022-11-21T18:07:22.717Z,97818.28
2022-11-21T18:10:43.442Z,97811.27
2022-11-21T18:13:48.646Z,97810.20
2022-11-21T18:17:01.224Z,97809.14
2022-11-21T18:20:15.523Z,97809.95
2022-11-21T18:23:27.218Z,97808.89
2022-11-21T18:26:41.982Z,97813.07
2022-11-21T18:29:53.625Z,97806.77
2022-11-21T18:33:05.444Z,97805.67
2022-11-21T18:36:18.446Z,97805.67
2022-11-21T18:39:30.539Z,97803.77
2022-11-21T18:42:42.546Z,97808.78
2022-11-21T18:45:54.198Z,97810.44
2022-11-21T18:49:08.057Z,97812.13
2022-11-21T18:52:20.452Z,97815.46
2022-11-21T18:55:32.303Z,97819.86
2022-11-21T18:58:47.046Z,97818.89
2022-11-21T19:02:01.912Z,97814.62
2022-11-21T19:05:20.208Z,97820.45
2022-11-21T19:08:29.762Z,97811.88
2022-11-21T19:11:41.947Z,97817.46
2022-11-21T19:14:55.583Z,97822.70
2022-11-21T19:18:07.705Z,97824.64
2022-11-21T19:21:21.357Z,97820.59
2022-11-21T19:24:33.369Z,97830.23
2022-11-21T19:27:45.173Z,97832.14
2022-11-21T19:30:57.036Z,97838.56
2022-11-21T19:34:09.200Z,97851.89
2022-11-21T19:37:21.046Z,97851.08
2022-11-21T19:40:35.805Z,97839.75
2022-11-21T19:43:49.157Z,97845.72
2022-11-21T19:47:01.027Z,97850.24
2022-11-21T19:50:15.515Z,97852.14
2022-11-21T19:53:27.410Z,97856.42
2022-11-21T19:56:39.665Z,97850.95
2022-11-21T19:59:52.059Z,97853.80
2022-11-21T20:03:03.875Z,97855.48
2022-11-21T20:06:20.640Z,97856.20
2022-11-21T20:09:34.750Z,97862.04
2022-11-21T20:12:46.600Z,97858.95
2022-11-21T20:15:58.508Z,97858.02
2022-11-21T20:19:14.710Z,97859.80
2022-11-21T20:22:28.774Z,97857.89
2022-11-21T20:25:40.737Z,97870.53
2022-11-21T20:28:55.634Z,97865.16
2022-11-21T20:32:07.606Z,97864.09
2022-11-21T20:35:19.620Z,97865.75
2022-11-21T20:38:31.321Z,97869.09
2022-11-21T20:41:43.894Z,97865.75
2022-11-21T20:48:15.885Z,97862.67
2022-11-21T20:54:39.769Z,97868.36
2022-11-21T20:57:51.767Z,97870.16
2022-11-21T21:01:04.224Z,97873.14
2022-11-21T21:04:16.209Z,97877.19
2022-11-21T21:07:28.251Z,97872.53
2022-11-21T21:11:04.585Z,97866.21
2022-11-21T21:13:55.309Z,97872.27
2022-11-21T21:17:07.253Z,97873.11
2022-11-21T21:20:20.054Z,97872.89
2022-11-21T21:23:34.059Z,97873.70
2022-11-21T21:26:48.359Z,97866.53
2022-11-21T21:30:00.415Z,97870.97
2022-11-21T21:33:12.228Z,97869.16
2022-11-21T21:36:26.472Z,97873.59
2022-11-21T21:39:38.288Z,97875.25
2022-11-21T21:42:50.069Z,97874.31
2022-11-21T21:46:01.933Z,97874.31
2022-11-21T21:49:13.713Z,97875.96
2022-11-21T21:52:25.578Z,97873.20
2022-11-21T21:55:37.462Z,97866.89
2022-11-21T21:58:52.063Z,97874.63
2022-11-21T22:02:04.346Z,97871.91
2022-11-21T22:05:17.661Z,97870.80
2022-11-21T22:08:29.659Z,97876.77
2022-11-21T22:11:44.128Z,97879.78
2022-11-21T22:14:55.922Z,97876.55
2022-11-21T22:18:07.930Z,97870.48
2022-11-21T22:21:25.467Z,97876.25
2022-11-21T22:24:39.268Z,97872.18
2022-11-21T22:27:51.601Z,97874.82
2022-11-21T22:31:04.612Z,97878.64
2022-11-21T22:34:18.024Z,97878.77
2022-11-21T22:37:29.883Z,97884.35
2022-11-21T22:40:42.966Z,97882.55
2022-11-21T22:43:58.921Z,97887.66
2022-11-21T22:47:10.781Z,97883.85
2022-11-21T22:50:24.472Z,97879.80
2022-11-21T22:53:40.193Z,97886.22
2022-11-21T22:56:53.447Z,97881.66
2022-11-21T23:00:07.118Z,97875.94
2022-11-21T23:03:19.339Z,97877.70
2022-11-21T23:06:32.508Z,97883.39
2022-11-21T23:09:44.202Z,97879.91
2022-11-21T23:12:55.884Z,97865.94
2022-11-21T23:16:08.533Z,97865.31
2022-11-21T23:19:20.236Z,97868.61
2022-11-21T23:22:32.018Z,97869.18
2022-11-21T23:25:43.807Z,97859.36
2022-11-21T23:28:55.564Z,97860.89
2022-11-21T23:32:07.639Z,97854.64
2022-11-21T23:35:19.600Z,97853.19
2022-11-21T23:38:31.254Z,97851.51
2022-11-21T23:41:43.365Z,97837.70
2022-11-21T23:44:55.005Z,97833.55
2022-11-21T23:48:06.721Z,97833.14
2022-11-21T23:51:18.447Z,97836.40
2022-11-21T23:54:30.099Z,97828.61
2022-11-21T23:57:41.837Z,97821.70
